Time;durP1;ratioP1;P1;durP2;ratioP2;P2;SDS_P1;SDS_P2;PMS_P1;PMS_P2;Temp;Humidity;BMP_temperature;BMP_pressure;BME280_temperature;BME280_humidity;BME280_pressure;Samples;Min_cycle;Max_cycle;Signal;HPM_P1;HPM_P2
2023/09/10 00:02:04;;;;;;;23.38;20.88;;;18.50;99.90;;;;;;4949639;28;20058;-76
2023/09/10 00:04:32;;;;;;;30.23;25.92;;;18.40;99.90;;;;;;4891520;28;20050;-77
2023/09/10 00:06:58;;;;;;;23.90;21.50;;;18.40;99.90;;;;;;4945467;28;20452;-77
2023/09/10 00:09:24;;;;;;;23.52;20.77;;;18.40;99.90;;;;;;4890138;28;20058;-77
2023/09/10 00:11:51;;;;;;;24.02;21.52;;;18.40;99.90;;;;;;4947632;28;20047;-77
2023/09/10 00:14:18;;;;;;;24.83;22.27;;;18.30;99.90;;;;;;4876644;28;20063;-78
2023/09/10 00:16:44;;;;;;;24.75;22.15;;;18.30;99.90;;;;;;4931418;28;20054;-78
2023/09/10 00:19:12;;;;;;;20.23;18.10;;;18.30;99.90;;;;;;4900682;28;20051;-78
2023/09/10 00:21:38;;;;;;;25.33;20.60;;;18.20;99.90;;;;;;4959737;23;20055;-68
2023/09/10 00:24:05;;;;;;;23.67;21.17;;;18.20;99.90;;;;;;4929533;28;20062;-70
2023/09/10 00:26:31;;;;;;;22.70;20.02;;;18.20;99.90;;;;;;4950334;28;20070;-69
2023/09/10 00:28:57;;;;;;;24.52;21.77;;;18.20;99.90;;;;;;4903076;28;20611;-70
2023/09/10 00:31:23;;;;;;;24.15;21.58;;;18.20;99.90;;;;;;4942631;28;20052;-69
2023/09/10 00:33:49;;;;;;;22.08;19.10;;;18.20;99.90;;;;;;4908808;28;20046;-68
2023/09/10 00:36:15;;;;;;;25.95;21.73;;;18.10;99.90;;;;;;4946730;28;20058;-70
2023/09/10 00:38:41;;;;;;;26.65;23.00;;;18.10;99.90;;;;;;4917817;28;20061;-70
2023/09/10 00:41:07;;;;;;;27.90;24.90;;;18.10;99.90;;;;;;4947426;28;20889;-69
2023/09/10 00:43:34;;;;;;;32.60;29.10;;;18.10;99.90;;;;;;4915388;28;20065;-71
2023/09/10 00:46:02;;;;;;;30.77;27.48;;;18.00;99.90;;;;;;4943259;28;20059;-69
2023/09/10 00:48:28;;;;;;;29.33;25.75;;;18.00;99.90;;;;;;4908714;28;20058;-70
2023/09/10 00:50:55;;;;;;;30.25;27.10;;;18.00;99.90;;;;;;4920792;29;21108;-69
2023/09/10 00:53:22;;;;;;;28.65;25.55;;;18.00;99.90;;;;;;4910499;28;21169;-68
2023/09/10 00:55:49;;;;;;;27.98;25.05;;;17.90;99.90;;;;;;4936111;28;20051;-69
2023/09/10 00:58:15;;;;;;;26.38;23.58;;;17.90;99.90;;;;;;4914652;28;20054;-69
2023/09/10 01:00:45;;;;;;;27.70;24.15;;;17.90;99.90;;;;;;4949436;28;20445;-69
2023/09/10 01:03:14;;;;;;;33.28;29.70;;;17.90;99.90;;;;;;4906544;28;20138;-69
2023/09/10 01:05:40;;;;;;;36.28;32.40;;;17.90;99.90;;;;;;4933373;28;20548;-70
2023/09/10 01:08:06;;;;;;;34.45;30.77;;;17.90;99.90;;;;;;4910703;28;20069;-69
2023/09/10 01:10:58;;;;;;;34.15;30.42;;;17.80;99.90;;;;;;4940547;28;20059;-70
2023/09/10 01:13:57;;;;;;;36.75;32.75;;;17.80;99.90;;;;;;4906017;28;20058;-70
2023/09/10 01:16:35;;;;;;;31.70;28.00;;;17.70;99.90;;;;;;4950056;28;20052;-71
2023/09/10 01:19:07;;;;;;;31.13;27.85;;;17.70;99.90;;;;;;4890567;28;20059;-71
2023/09/10 01:21:56;;;;;;;32.63;29.15;;;17.60;99.90;;;;;;4937790;28;20059;-71
2023/09/10 01:24:44;;;;;;;28.70;25.73;;;17.60;99.90;;;;;;4903002;28;20925;-72
2023/09/10 01:27:11;;;;;;;28.67;25.67;;;17.60;99.90;;;;;;4944706;28;20066;-70
2023/09/10 01:29:37;;;;;;;30.95;27.65;;;17.60;99.90;;;;;;4921353;28;20062;-71
2023/09/10 01:32:09;;;;;;;31.02;27.73;;;17.60;99.90;;;;;;4946493;28;20437;-70
2023/09/10 01:34:41;;;;;;;33.15;29.60;;;17.60;99.90;;;;;;4915525;28;20055;-70
2023/09/10 01:37:19;;;;;;;31.58;28.17;;;17.50;99.90;;;;;;4944300;28;20064;-71
2023/09/10 01:39:51;;;;;;;32.88;29.38;;;17.50;99.90;;;;;;4908459;28;20043;-70
2023/09/10 01:42:18;;;;;;;30.33;27.15;;;17.50;99.90;;;;;;4943742;28;20811;-71
2023/09/10 01:44:45;;;;;;;28.88;25.80;;;17.50;99.90;;;;;;4912283;28;20062;-70
2023/09/10 01:47:12;;;;;;;32.83;29.40;;;17.50;99.90;;;;;;4941691;28;20553;-70
2023/09/10 01:49:39;;;;;;;34.20;30.52;;;17.50;99.90;;;;;;4918111;28;20062;-70
2023/09/10 01:52:05;;;;;;;30.90;27.58;;;17.40;99.90;;;;;;4946264;28;20165;-71
2023/09/10 01:54:31;;;;;;;31.33;28.00;;;17.40;99.90;;;;;;4910406;28;28561;-70
2023/09/10 01:56:57;;;;;;;29.75;26.65;;;17.40;99.90;;;;;;4949053;28;20063;-71
2023/09/10 01:59:23;;;;;;;28.90;25.80;;;17.40;99.90;;;;;;4921991;28;20845;-71
2023/09/10 02:01:49;;;;;;;29.35;26.23;;;17.40;99.90;;;;;;4941870;28;20062;-71
2023/09/10 02:04:15;;;;;;;28.52;25.58;;;17.40;99.90;;;;;;4922087;28;20050;-71
2023/09/10 02:06:42;;;;;;;30.77;27.25;;;17.40;99.90;;;;;;4948461;28;20055;-71
2023/09/10 02:09:08;;;;;;;33.03;28.70;;;17.40;99.90;;;;;;4916326;28;21026;-69
2023/09/10 02:11:34;;;;;;;34.78;29.27;;;17.40;99.90;;;;;;4950691;28;20055;-71
2023/09/10 02:14:00;;;;;;;28.20;25.20;;;17.30;99.90;;;;;;4918955;28;20501;-70
2023/09/10 02:16:26;;;;;;;27.90;24.20;;;17.30;99.90;;;;;;4935133;29;20051;-70
2023/09/10 02:18:52;;;;;;;26.83;24.02;;;17.30;99.90;;;;;;4921654;28;20043;-71
2023/09/10 02:21:18;;;;;;;25.88;21.95;;;17.20;99.90;;;;;;4948733;28;20059;-72
2023/09/10 02:23:45;;;;;;;27.15;23.38;;;17.20;99.90;;;;;;4903436;28;20054;-71
2023/09/10 02:26:11;;;;;;;26.75;23.65;;;17.20;99.90;;;;;;4948571;28;20046;-70
2023/09/10 02:28:37;;;;;;;24.77;22.15;;;17.30;99.90;;;;;;4917129;28;24160;-71
2023/09/10 02:31:05;;;;;;;25.30;22.67;;;17.20;99.90;;;;;;4954228;28;20055;-70
2023/09/10 02:33:32;;;;;;;24.60;22.02;;;17.20;99.90;;;;;;4918684;28;20513;-72
2023/09/10 02:35:58;;;;;;;24.80;21.80;;;17.20;99.90;;;;;;4948220;28;20043;-71
2023/09/10 02:38:24;;;;;;;26.77;23.92;;;17.20;99.90;;;;;;4920455;28;20051;-70
2023/09/10 02:40:51;;;;;;;27.73;24.83;;;17.20;99.90;;;;;;4954219;28;20413;-72
2023/09/10 02:43:17;;;;;;;31.85;28.27;;;17.20;99.90;;;;;;4913460;28;20047;-72
2023/09/10 02:45:43;;;;;;;28.13;25.23;;;17.20;99.90;;;;;;4955673;28;20061;-71
2023/09/10 02:48:09;;;;;;;26.27;23.48;;;17.10;99.90;;;;;;4910914;28;20054;-72
2023/09/10 02:50:35;;;;;;;26.67;23.77;;;17.10;99.90;;;;;;4956253;28;20039;-71
2023/09/10 02:53:01;;;;;;;29.90;26.17;;;17.10;99.90;;;;;;4910551;28;164628;-71
2023/09/10 02:55:27;;;;;;;33.00;28.60;;;17.10;99.90;;;;;;4943943;28;20066;-70
2023/09/10 02:57:54;;;;;;;29.98;26.67;;;17.10;99.90;;;;;;4927209;28;20557;-70
2023/09/10 03:00:25;;;;;;;27.77;24.88;;;17.10;99.90;;;;;;4942313;28;20055;-70
2023/09/10 03:02:54;;;;;;;34.05;30.38;;;17.10;99.90;;;;;;4922443;28;21279;-70
2023/09/10 03:05:21;;;;;;;33.42;29.75;;;17.10;99.90;;;;;;4946756;28;20059;-72
2023/09/10 03:07:51;;;;;;;31.10;27.52;;;17.00;99.90;;;;;;4908011;28;20067;-69
2023/09/10 03:10:18;;;;;;;29.73;26.17;;;17.00;99.90;;;;;;4911259;28;20075;-70
2023/09/10 03:12:44;;;;;;;30.30;26.95;;;17.00;99.90;;;;;;4904135;28;20287;-70
2023/09/10 03:15:10;;;;;;;31.75;28.27;;;17.00;99.90;;;;;;4959520;28;20051;-70
2023/09/10 03:17:36;;;;;;;37.58;33.10;;;17.00;99.90;;;;;;4910137;28;20166;-71
2023/09/10 03:20:04;;;;;;;27.92;24.42;;;17.00;99.90;;;;;;4931225;28;20058;-71
2023/09/10 03:22:30;;;;;;;29.83;26.45;;;17.00;99.90;;;;;;4918319;28;20058;-71
2023/09/10 03:24:57;;;;;;;30.20;26.90;;;17.00;99.90;;;;;;4943786;28;20070;-69
2023/09/10 03:27:23;;;;;;;29.20;26.10;;;16.90;99.90;;;;;;4959767;28;20062;-70
2023/09/10 03:29:50;;;;;;;33.92;28.95;;;16.90;99.90;;;;;;4910538;28;20047;-71
2023/09/10 03:32:16;;;;;;;28.60;25.10;;;16.90;99.90;;;;;;4946419;28;20067;-71
2023/09/10 03:34:42;;;;;;;28.17;25.20;;;16.90;99.90;;;;;;4920774;28;20047;-70
2023/09/10 03:37:08;;;;;;;29.00;25.88;;;16.90;99.90;;;;;;4949170;28;20043;-71
2023/09/10 03:39:34;;;;;;;32.08;28.25;;;16.90;99.90;;;;;;4921828;28;20042;-70
2023/09/10 03:42:00;;;;;;;32.92;29.33;;;16.80;99.90;;;;;;4947954;28;20172;-71
2023/09/10 03:44:26;;;;;;;35.20;30.58;;;16.90;99.90;;;;;;4908598;28;20055;-70
2023/09/10 03:46:53;;;;;;;38.15;34.05;;;16.90;99.90;;;;;;4943557;28;20058;-70
2023/09/10 03:49:19;;;;;;;37.47;33.47;;;16.90;99.90;;;;;;4907475;28;20235;-69
2023/09/10 03:51:48;;;;;;;34.17;30.45;;;16.80;99.90;;;;;;4942300;28;20605;-71
2023/09/10 03:54:15;;;;;;;29.25;25.92;;;16.80;99.90;;;;;;4892273;28;176406;-70
2023/09/10 03:56:41;;;;;;;27.63;23.98;;;16.80;99.90;;;;;;4946909;28;20069;-70
2023/09/10 03:59:08;;;;;;;31.17;27.83;;;16.80;99.90;;;;;;4919142;28;20473;-70
2023/09/10 04:01:34;;;;;;;33.88;29.33;;;16.80;99.90;;;;;;4944678;28;20599;-72
2023/09/10 04:04:01;;;;;;;37.38;33.35;;;16.80;99.90;;;;;;4918477;28;20595;-71
2023/09/10 04:06:28;;;;;;;34.72;30.98;;;16.80;99.90;;;;;;4949231;28;20055;-71
2023/09/10 04:08:54;;;;;;;35.88;30.95;;;16.70;99.90;;;;;;4905908;28;20429;-71
2023/09/10 04:11:20;;;;;;;33.90;30.33;;;16.80;99.90;;;;;;4949579;28;20051;-70
2023/09/10 04:13:46;;;;;;;37.40;33.17;;;16.70;99.90;;;;;;4914203;28;20509;-70
2023/09/10 04:16:13;;;;;;;42.40;35.97;;;16.70;99.90;;;;;;4949656;28;20055;-70
2023/09/10 04:18:40;;;;;;;38.03;33.72;;;16.70;99.90;;;;;;4917264;28;20058;-73
2023/09/10 04:21:07;;;;;;;42.08;37.30;;;16.70;99.90;;;;;;4950623;28;20694;-70
2023/09/10 04:23:33;;;;;;;38.20;33.75;;;16.70;99.90;;;;;;4919908;28;20059;-71
2023/09/10 04:25:59;;;;;;;34.85;31.05;;;16.70;99.90;;;;;;4944849;28;20062;-70
2023/09/10 04:28:25;;;;;;;37.50;33.50;;;16.70;99.90;;;;;;4925751;28;20071;-71
2023/09/10 04:30:51;;;;;;;47.40;40.65;;;16.70;99.90;;;;;;4942994;28;20058;-70
2023/09/10 04:33:17;;;;;;;41.08;34.92;;;16.70;99.90;;;;;;4911345;28;20051;-70
2023/09/10 04:35:53;;;;;;;48.60;39.05;;;16.70;99.90;;;;;;4946326;28;20063;-70
2023/09/10 04:38:20;;;;;;;38.97;34.85;;;16.70;99.90;;;;;;4926397;28;20126;-70
2023/09/10 04:40:46;;;;;;;45.10;38.92;;;16.60;99.90;;;;;;4958832;28;20055;-70
2023/09/10 04:43:12;;;;;;;53.28;42.80;;;16.70;99.90;;;;;;4911840;28;20058;-70
2023/09/10 04:45:38;;;;;;;37.63;33.55;;;16.60;99.90;;;;;;4954588;28;20050;-71
2023/09/10 04:48:04;;;;;;;39.33;32.53;;;16.60;99.90;;;;;;4903958;28;20039;-71
2023/09/10 04:50:31;;;;;;;38.45;34.28;;;16.60;99.90;;;;;;4943720;28;20059;-70
2023/09/10 04:52:57;;;;;;;34.38;30.15;;;16.60;99.90;;;;;;4901229;28;61282;-71
2023/09/10 04:55:23;;;;;;;40.90;35.70;;;16.60;99.90;;;;;;4957892;28;20102;-71
2023/09/10 04:57:49;;;;;;;36.15;32.28;;;16.60;99.90;;;;;;4911784;28;20573;-71
2023/09/10 05:00:16;;;;;;;44.22;37.85;;;16.60;99.90;;;;;;4957540;28;20099;-71
2023/09/10 05:02:42;;;;;;;45.08;38.42;;;16.60;99.90;;;;;;4908714;28;20052;-71
2023/09/10 05:05:08;;;;;;;36.72;31.50;;;16.60;99.90;;;;;;4960136;28;20370;-71
2023/09/10 05:07:34;;;;;;;36.78;32.90;;;16.50;99.90;;;;;;4907344;28;20162;-70
2023/09/10 05:10:00;;;;;;;43.40;37.35;;;16.50;99.90;;;;;;4956897;28;20058;-70
2023/09/10 05:12:26;;;;;;;43.38;36.88;;;16.50;99.90;;;;;;4933385;28;20044;-70
2023/09/10 05:14:53;;;;;;;36.95;32.15;;;16.50;99.90;;;;;;4919273;28;20054;-71
2023/09/10 05:17:19;;;;;;;35.25;30.40;;;16.50;99.90;;;;;;4944239;28;20040;-69
2023/09/10 05:19:47;;;;;;;38.28;32.60;;;16.40;99.90;;;;;;4900505;28;20039;-72
2023/09/10 05:22:13;;;;;;;36.78;32.10;;;16.50;99.90;;;;;;4947770;28;20062;-70
2023/09/10 05:24:39;;;;;;;40.65;35.45;;;16.50;99.90;;;;;;4908760;28;20397;-71
2023/09/10 05:27:06;;;;;;;40.63;35.28;;;16.50;99.90;;;;;;4948145;28;20055;-70
2023/09/10 05:29:32;;;;;;;39.63;35.13;;;16.50;99.90;;;;;;4919926;28;20165;-70
2023/09/10 05:31:58;;;;;;;40.97;34.42;;;16.60;99.90;;;;;;4945643;28;20069;-71
2023/09/10 05:34:24;;;;;;;39.35;34.53;;;16.60;99.90;;;;;;4923033;28;20052;-70
2023/09/10 05:36:51;;;;;;;40.53;34.13;;;16.60;99.90;;;;;;4961989;28;20040;-71
2023/09/10 05:39:17;;;;;;;35.95;31.75;;;16.70;99.90;;;;;;4927977;28;20047;-71
2023/09/10 05:41:43;;;;;;;35.35;31.13;;;16.70;99.90;;;;;;4947846;28;20062;-70
2023/09/10 05:44:09;;;;;;;35.92;31.67;;;16.80;99.90;;;;;;4907924;28;20055;-70
2023/09/10 05:46:36;;;;;;;34.83;30.33;;;16.80;99.90;;;;;;4947365;28;20063;-70
2023/09/10 05:49:02;;;;;;;32.75;29.15;;;16.90;99.90;;;;;;4908997;28;20051;-70
2023/09/10 05:51:28;;;;;;;33.65;29.15;;;16.90;99.90;;;;;;4950621;28;20051;-70
2023/09/10 05:53:54;;;;;;;30.65;25.45;;;17.00;99.90;;;;;;4893696;28;113196;-71
2023/09/10 05:56:20;;;;;;;28.58;25.55;;;17.10;99.90;;;;;;4950731;28;20058;-70
2023/09/10 05:58:46;;;;;;;30.92;26.35;;;17.20;99.90;;;;;;4914305;28;20051;-72
2023/09/10 06:01:12;;;;;;;26.08;23.27;;;17.30;99.90;;;;;;4949815;28;20051;-70
2023/09/10 06:03:38;;;;;;;26.00;23.20;;;17.60;99.90;;;;;;4918451;28;20140;-70
2023/09/10 06:06:04;;;;;;;26.05;23.25;;;17.90;99.90;;;;;;4954645;28;20054;-72
2023/09/10 06:08:31;;;;;;;25.02;22.30;;;18.20;99.90;;;;;;4911513;28;20047;-70
2023/09/10 06:10:57;;;;;;;25.85;23.13;;;18.40;99.90;;;;;;4924170;28;20035;-70
2023/09/10 06:13:23;;;;;;;26.05;22.02;;;18.70;99.90;;;;;;4916719;28;20501;-70
2023/09/10 06:15:49;;;;;;;28.88;23.77;;;18.90;99.90;;;;;;4929155;28;20070;-71
2023/09/10 06:18:15;;;;;;;26.58;23.80;;;19.20;99.90;;;;;;4917426;28;20101;-71
2023/09/10 06:20:41;;;;;;;30.73;27.13;;;19.30;99.90;;;;;;4955305;28;20051;-70
2023/09/10 06:23:07;;;;;;;30.83;27.63;;;19.60;99.90;;;;;;4913692;28;20076;-71
2023/09/10 06:25:34;;;;;;;31.30;27.75;;;19.80;99.90;;;;;;4958682;28;20051;-71
2023/09/10 06:28:00;;;;;;;32.03;28.70;;;20.10;99.90;;;;;;4912537;28;20517;-70
2023/09/10 06:30:26;;;;;;;31.52;28.10;;;20.30;99.90;;;;;;4951540;28;20271;-70
2023/09/10 06:32:52;;;;;;;32.00;28.70;;;20.60;99.90;;;;;;4924745;28;20058;-70
2023/09/10 06:35:18;;;;;;;29.00;25.85;;;20.90;99.90;;;;;;4959728;28;20533;-70
2023/09/10 06:37:47;;;;;;;31.02;27.73;;;21.10;99.90;;;;;;4907863;28;20060;-70
2023/09/10 06:40:14;;;;;;;29.80;26.70;;;21.40;99.90;;;;;;4914940;29;20085;-70
2023/09/10 06:42:40;;;;;;;34.03;27.67;;;21.60;99.90;;;;;;4909869;28;20065;-69
2023/09/10 06:45:06;;;;;;;33.38;26.27;;;21.90;99.90;;;;;;4959555;28;20051;-70
2023/09/10 06:47:33;;;;;;;31.55;26.75;;;22.10;99.90;;;;;;4923264;28;20495;-70
2023/09/10 06:50:00;;;;;;;35.92;27.92;;;22.40;99.90;;;;;;4961477;28;20051;-71
2023/09/10 06:52:26;;;;;;;28.50;25.50;;;22.60;99.90;;;;;;4937249;28;20066;-70
2023/09/10 06:54:52;;;;;;;23.25;20.85;;;22.70;99.90;;;;;;4883025;28;222467;-71
2023/09/10 06:57:18;;;;;;;28.42;25.50;;;23.00;99.90;;;;;;4947266;28;20063;-70
2023/09/10 06:59:44;;;;;;;28.23;24.75;;;23.20;99.90;;;;;;4908118;28;20438;-70
2023/09/10 07:02:10;;;;;;;31.48;25.08;;;23.40;99.90;;;;;;4945582;28;20066;-70
2023/09/10 07:04:36;;;;;;;27.13;23.65;;;23.60;99.90;;;;;;4923060;28;20171;-69
2023/09/10 07:07:03;;;;;;;28.20;25.30;;;23.80;99.90;;;;;;4961147;28;20067;-70
2023/09/10 07:09:29;;;;;;;28.05;24.85;;;24.00;99.90;;;;;;4920763;28;20058;-70
2023/09/10 07:11:55;;;;;;;27.52;24.50;;;24.20;99.90;;;;;;4946609;28;20086;-69
2023/09/10 07:14:21;;;;;;;25.75;23.10;;;24.50;99.90;;;;;;4922557;28;20050;-70
2023/09/10 07:16:48;;;;;;;25.10;22.50;;;24.70;99.90;;;;;;4949746;28;20047;-71
2023/09/10 07:19:15;;;;;;;24.10;21.30;;;24.70;99.90;;;;;;4909608;28;20059;-71
2023/09/10 07:21:41;;;;;;;23.88;21.35;;;25.00;99.90;;;;;;4950123;28;20047;-72
2023/09/10 07:24:09;;;;;;;24.88;19.40;;;25.20;99.90;;;;;;4917269;28;20055;-69
2023/09/10 07:26:39;;;;;;;21.95;19.20;;;25.40;99.90;;;;;;4953335;28;20051;-70
2023/09/10 07:29:06;;;;;;;22.03;19.30;;;25.60;99.90;;;;;;4908498;28;20154;-71
2023/09/10 07:31:33;;;;;;;18.83;16.83;;;25.80;99.90;;;;;;4949517;28;20303;-70
2023/09/10 07:34:00;;;;;;;19.45;16.52;;;25.80;99.90;;;;;;4909234;28;20047;-70
2023/09/10 07:36:26;;;;;;;18.67;15.60;;;26.00;99.90;;;;;;4945082;28;20051;-70
2023/09/10 07:38:52;;;;;;;17.30;14.90;;;26.10;99.40;;;;;;4918610;28;20046;-70
2023/09/10 07:41:18;;;;;;;16.92;13.95;;;26.30;99.20;;;;;;4945274;28;20070;-72
2023/09/10 07:43:45;;;;;;;17.48;14.13;;;26.50;98.80;;;;;;4906161;28;20062;-70
2023/09/10 07:46:11;;;;;;;16.42;13.20;;;26.80;98.90;;;;;;4930704;29;20059;-71
2023/09/10 07:48:37;;;;;;;16.67;14.07;;;27.00;98.10;;;;;;4909139;28;20062;-71
2023/09/10 07:51:03;;;;;;;16.08;12.23;;;27.20;97.50;;;;;;4941671;28;20051;-71
2023/09/10 07:53:29;;;;;;;16.83;11.93;;;27.20;97.70;;;;;;4898714;28;105006;-69
2023/09/10 07:55:56;;;;;;;15.85;12.15;;;27.30;96.90;;;;;;4935774;28;20062;-71
2023/09/10 07:58:22;;;;;;;14.65;11.90;;;27.30;96.60;;;;;;4917757;28;20102;-70
2023/09/10 08:00:50;;;;;;;15.02;12.35;;;27.30;96.50;;;;;;4958363;28;20134;-71
2023/09/10 08:03:16;;;;;;;14.52;11.65;;;27.60;96.10;;;;;;4913813;28;20058;-71
2023/09/10 08:05:42;;;;;;;16.45;11.70;;;27.80;96.20;;;;;;4955623;28;20051;-70
2023/09/10 08:08:08;;;;;;;13.77;11.68;;;28.00;95.10;;;;;;4916629;28;20039;-71
2023/09/10 08:10:34;;;;;;;14.73;11.38;;;28.10;95.10;;;;;;4957888;28;20521;-71
2023/09/10 08:13:03;;;;;;;16.30;11.45;;;28.10;95.40;;;;;;4923615;28;20169;-72
2023/09/10 08:15:30;;;;;;;14.60;12.70;;;28.50;95.50;;;;;;4960307;28;20066;-70
2023/09/10 08:17:58;;;;;;;16.05;12.05;;;28.90;95.10;;;;;;4912203;28;20595;-71
2023/09/10 08:20:24;;;;;;;15.20;11.88;;;29.10;94.80;;;;;;4959637;28;20518;-72
2023/09/10 08:22:50;;;;;;;15.52;12.75;;;29.40;94.90;;;;;;4926466;28;20056;-71
2023/09/10 08:25:16;;;;;;;15.93;13.05;;;29.70;94.40;;;;;;4958913;28;20038;-71
2023/09/10 08:27:42;;;;;;;15.43;11.98;;;29.70;94.10;;;;;;4914500;28;20062;-72
2023/09/10 08:30:09;;;;;;;16.88;12.00;;;30.00;94.00;;;;;;4961602;28;20048;-72
2023/09/10 08:32:37;;;;;;;16.25;12.50;;;30.30;93.70;;;;;;4922461;28;20513;-72
2023/09/10 08:35:04;;;;;;;15.45;12.55;;;30.60;93.70;;;;;;4960263;28;20071;-72
2023/09/10 08:37:30;;;;;;;14.65;11.27;;;30.80;93.20;;;;;;4922886;28;20058;-71
2023/09/10 08:39:57;;;;;;;16.50;11.13;;;31.10;93.30;;;;;;4951137;28;20047;-71
2023/09/10 08:42:41;;;;;;;14.55;10.38;;;31.30;92.40;;;;;;4943336;28;20070;-72
2023/09/10 08:45:10;;;;;;;14.55;10.68;;;31.50;91.80;;;;;;4892087;28;20051;-71
2023/09/10 08:47:41;;;;;;;13.82;10.48;;;31.50;91.70;;;;;;4907336;28;20047;-71
2023/09/10 08:50:12;;;;;;;14.00;9.20;;;31.20;91.20;;;;;;4953090;28;20062;-71
2023/09/10 08:52:43;;;;;;;12.35;8.95;;;31.00;92.00;;;;;;4899536;28;38034;-71
2023/09/10 08:55:13;;;;;;;13.63;8.80;;;31.20;91.80;;;;;;4956176;28;20055;-72
2023/09/10 08:57:41;;;;;;;13.18;9.60;;;31.70;91.70;;;;;;4911685;28;20398;-71
2023/09/10 09:00:12;;;;;;;13.15;9.38;;;32.10;91.30;;;;;;4962855;28;20047;-71
2023/09/10 09:02:40;;;;;;;12.15;9.43;;;32.00;90.90;;;;;;4907447;28;20051;-71
2023/09/10 09:05:06;;;;;;;11.00;8.73;;;32.30;90.70;;;;;;4960177;28;20058;-72
2023/09/10 09:07:57;;;;;;;14.48;8.43;;;32.30;90.30;;;;;;4909099;28;20051;-72
2023/09/10 09:10:26;;;;;;;12.75;7.90;;;32.40;90.40;;;;;;4954467;28;20062;-71
2023/09/10 09:12:57;;;;;;;12.48;8.38;;;32.90;90.50;;;;;;4906307;28;20058;-72
2023/09/10 09:15:25;;;;;;;12.13;7.90;;;33.10;89.30;;;;;;4947588;28;20063;-71
2023/09/10 09:17:54;;;;;;;13.15;7.75;;;33.10;89.30;;;;;;4911092;28;20055;-71
2023/09/10 09:20:21;;;;;;;14.30;8.40;;;33.30;89.80;;;;;;4951664;28;20876;-73
2023/09/10 09:22:50;;;;;;;12.07;7.05;;;33.50;88.80;;;;;;4907897;28;20756;-73
2023/09/10 09:25:16;;;;;;;14.20;7.88;;;33.70;88.90;;;;;;4956517;28;20089;-71
2023/09/10 09:27:43;;;;;;;14.18;7.18;;;33.80;87.30;;;;;;4906406;28;20051;-69
2023/09/10 09:30:11;;;;;;;11.98;6.97;;;33.90;88.00;;;;;;4943306;28;20062;-69
2023/09/10 09:32:37;;;;;;;12.02;7.07;;;34.40;87.30;;;;;;4907835;28;20113;-70
2023/09/10 09:35:13;;;;;;;13.77;7.40;;;34.80;86.90;;;;;;4930308;28;20051;-69
2023/09/10 09:37:40;;;;;;;14.75;7.50;;;35.20;85.60;;;;;;4912288;28;20062;-68
2023/09/10 09:40:09;;;;;;;13.68;7.13;;;35.40;84.40;;;;;;4946118;28;20156;-69
2023/09/10 09:42:37;;;;;;;12.07;6.38;;;35.40;84.60;;;;;;4893197;28;20055;-70
2023/09/10 09:45:03;;;;;;;10.07;6.20;;;35.50;85.60;;;;;;4956282;28;20078;-70
2023/09/10 09:47:30;;;;;;;14.90;6.88;;;35.80;84.30;;;;;;4916109;28;20059;-70
2023/09/10 09:49:57;;;;;;;12.40;5.90;;;35.90;83.60;;;;;;4914942;28;20055;-70
2023/09/10 09:52:23;;;;;;;12.65;6.18;;;35.90;83.60;;;;;;4939878;28;20055;-68
2023/09/10 09:54:50;;;;;;;13.38;6.55;;;36.10;83.30;;;;;;4910928;28;48324;-70
2023/09/10 09:57:16;;;;;;;14.88;6.18;;;36.40;82.30;;;;;;4944088;28;20058;-72
2023/09/10 09:59:43;;;;;;;11.18;6.18;;;36.40;82.50;;;;;;4913856;28;20047;-70
2023/09/10 10:02:17;;;;;;;12.20;6.18;;;36.50;82.50;;;;;;4945359;28;20061;-72
2023/09/10 10:04:44;;;;;;;12.55;6.00;;;36.70;81.90;;;;;;4918562;28;20537;-69
2023/09/10 10:07:14;;;;;;;11.00;5.95;;;36.60;81.50;;;;;;4942171;28;20063;-69
2023/09/10 10:09:41;;;;;;;14.98;6.28;;;36.70;81.80;;;;;;4906059;28;20058;-71
2023/09/10 10:12:08;;;;;;;12.23;6.13;;;36.90;81.10;;;;;;4944335;28;20099;-70
2023/09/10 10:14:36;;;;;;;11.95;6.28;;;37.20;80.40;;;;;;4910365;28;20070;-71
2023/09/10 10:17:05;;;;;;;10.55;5.28;;;37.30;79.70;;;;;;4946776;28;20059;-70
2023/09/10 10:19:32;;;;;;;13.18;5.60;;;37.40;81.00;;;;;;4923246;28;20058;-71
2023/09/10 10:21:59;;;;;;;12.10;5.88;;;37.50;79.30;;;;;;4945466;28;20039;-69
2023/09/10 10:24:25;;;;;;;15.27;5.80;;;37.00;79.70;;;;;;4911384;28;20051;-71
2023/09/10 10:26:52;;;;;;;10.38;4.75;;;36.70;79.50;;;;;;4947553;28;20055;-71
2023/09/10 10:29:20;;;;;;;12.18;5.43;;;36.50;80.90;;;;;;4920817;28;20066;-71
2023/09/10 10:31:52;;;;;;;11.23;5.70;;;36.80;81.20;;;;;;4947686;28;20055;-71
2023/09/10 10:34:26;;;;;;;11.50;5.40;;;37.00;79.10;;;;;;4922181;28;20476;-70
2023/09/10 10:37:14;;;;;;;13.80;5.50;;;37.20;78.10;;;;;;4947670;28;20043;-71
2023/09/10 10:39:54;;;;;;;9.77;5.18;;;37.30;78.50;;;;;;4920728;28;20058;-71
2023/09/10 10:42:23;;;;;;;;;;;37.40;78.80;;;;;;4944943;28;20081;-70
2023/09/10 10:44:51;;;;;;;11.10;5.43;;;37.60;79.00;;;;;;4917137;28;38459;-71
2023/09/10 10:47:19;;;;;;;13.65;5.20;;;37.70;79.40;;;;;;4941959;28;20066;-70
2023/09/10 10:49:56;;;;;;;10.50;5.10;;;37.90;79.00;;;;;;4890973;28;20051;-71
2023/09/10 10:52:29;;;;;;;11.52;4.93;;;38.00;76.80;;;;;;4943585;28;20050;-70
2023/09/10 10:54:56;;;;;;;11.57;5.00;;;37.80;78.50;;;;;;4866854;28;20525;-71
2023/09/10 10:57:24;;;;;;;15.63;5.72;;;37.80;78.60;;;;;;4948326;28;20433;-71
2023/09/10 10:59:50;;;;;;;13.43;5.05;;;37.90;78.50;;;;;;4922024;28;20043;-72
2023/09/10 11:02:23;;;;;;;12.93;4.82;;;38.10;78.10;;;;;;4948176;28;20059;-72
2023/09/10 11:05:01;;;;;;;12.68;4.72;;;38.30;78.30;;;;;;4912668;28;20521;-72
2023/09/10 11:07:29;;;;;;;10.60;4.85;;;38.40;77.50;;;;;;4925920;28;20066;-71
2023/09/10 11:10:16;;;;;;;10.27;4.20;;;38.40;77.50;;;;;;4885394;28;246785;-72
2023/09/10 11:13:03;;;;;;;10.88;4.90;;;38.50;78.10;;;;;;4916874;28;20066;-71
2023/09/10 11:15:29;;;;;;;15.50;5.03;;;38.60;77.90;;;;;;4951537;28;20094;-72
2023/09/10 11:18:15;;;;;;;14.57;4.70;;;38.60;77.00;;;;;;4917065;28;241276;-71
2023/09/10 11:20:51;;;;;;;10.82;4.63;;;38.70;77.10;;;;;;4957440;28;20070;-71
2023/09/10 11:23:18;;;;;;;15.52;5.00;;;39.00;75.40;;;;;;4901127;28;208516;-72
2023/09/10 11:25:47;;;;;;;13.43;4.72;;;38.80;75.70;;;;;;4927364;28;20047;-72
2023/09/10 11:28:45;;;;;;;11.73;4.78;;;38.60;76.30;;;;;;4924885;28;100918;-72
2023/09/10 11:31:33;;;;;;;14.20;4.70;;;38.50;75.80;;;;;;4953750;28;20083;-72
2023/09/10 11:34:18;;;;;;;11.45;5.00;;;38.60;76.20;;;;;;4913071;28;204978;-71
2023/09/10 11:36:49;;;;;;;13.50;4.93;;;38.60;75.40;;;;;;4949829;28;20387;-73
2023/09/10 11:39:17;;;;;;;18.35;5.32;;;38.70;75.90;;;;;;4898519;28;38707;-73
2023/09/10 11:41:47;;;;;;;12.27;4.40;;;38.60;76.10;;;;;;4943075;28;20505;-73
2023/09/10 11:44:13;;;;;;;15.23;4.00;;;38.70;75.40;;;;;;4902253;28;219254;-73
2023/09/10 11:46:40;;;;;;;20.38;5.32;;;38.90;76.60;;;;;;4944024;28;20050;-73
2023/09/10 11:49:06;;;;;;;17.00;4.72;;;39.30;75.60;;;;;;4902415;28;215383;-74
2023/09/10 11:51:40;;;;;;;18.00;5.05;;;39.40;75.20;;;;;;4946458;28;20048;-73
2023/09/10 11:54:06;;;;;;;23.52;5.47;;;39.00;74.80;;;;;;4900067;28;204993;-74
2023/09/10 11:56:35;;;;;;;17.52;5.07;;;38.70;74.80;;;;;;4953254;28;20051;-74
2023/09/10 11:59:02;;;;;;;15.68;4.78;;;38.80;74.50;;;;;;4908121;28;84960;-73
2023/09/10 12:01:28;;;;;;;14.55;5.10;;;38.90;74.30;;;;;;4947134;28;20070;-73
2023/09/10 12:03:55;;;;;;;19.02;5.15;;;38.90;74.40;;;;;;4912894;28;118460;-72
2023/09/10 12:06:21;;;;;;;17.73;4.30;;;38.80;74.20;;;;;;4948878;28;20054;-72
2023/09/10 12:08:47;;;;;;;15.98;4.82;;;38.90;74.50;;;;;;4907802;28;141569;-73
2023/09/10 12:11:16;;;;;;;15.77;4.95;;;39.20;73.90;;;;;;4949877;28;20134;-72
2023/09/10 12:13:43;;;;;;;22.50;5.07;;;39.20;73.80;;;;;;4909951;28;135164;-74
2023/09/10 12:16:11;;;;;;;19.40;5.10;;;39.20;73.90;;;;;;4954712;28;20059;-74
2023/09/10 12:18:38;;;;;;;15.32;4.80;;;38.70;74.40;;;;;;4898264;28;179563;-73
2023/09/10 12:21:05;;;;;;;17.60;5.32;;;38.90;74.40;;;;;;4936248;28;20066;-74
2023/09/10 12:23:32;;;;;;;16.02;4.82;;;39.30;74.60;;;;;;4913141;28;38749;-74
2023/09/10 12:25:59;;;;;;;21.23;5.72;;;39.10;74.20;;;;;;4954268;28;20059;-74
2023/09/10 12:28:25;;;;;;;14.07;4.47;;;39.10;73.70;;;;;;4894694;28;66743;-74
2023/09/10 12:30:52;;;;;;;11.45;4.57;;;39.40;73.70;;;;;;4939875;28;20047;-73
2023/09/10 12:33:20;;;;;;;14.38;4.70;;;39.70;73.80;;;;;;4903802;28;134578;-72
2023/09/10 12:35:47;;;;;;;16.90;4.68;;;39.60;73.40;;;;;;4947678;28;20518;-73